Time;durP1;ratioP1;P1;durP2;ratioP2;P2;SDS_P1;SDS_P2;PMS_P1;PMS_P2;Temp;Humidity;BMP_temperature;BMP_pressure;BME280_temperature;BME280_humidity;BME280_pressure;Samples;Min_cycle;Max_cycle;Signal;HPM_P1;HPM_P2
2021/07/25 00:01:19;;;;;;;47.08;36.53;;;18.90;99.90;;;;;;5051810;28;20048;-73
2021/07/25 00:03:44;;;;;;;52.55;37.60;;;18.50;99.90;;;;;;5051401;28;20427;-73
2021/07/25 00:06:16;;;;;;;53.83;38.53;;;18.50;99.90;;;;;;5051297;28;20112;-72
2021/07/25 00:08:42;;;;;;;49.45;37.75;;;18.60;99.90;;;;;;5051949;28;20028;-72
2021/07/25 00:11:08;;;;;;;52.60;36.35;;;18.60;99.90;;;;;;5051432;28;20431;-72
2021/07/25 00:13:37;;;;;;;56.05;37.75;;;18.60;99.90;;;;;;5050837;28;20492;-72
2021/07/25 00:16:03;;;;;;;57.17;39.33;;;18.60;99.90;;;;;;5051596;28;20036;-74
2021/07/25 00:18:29;;;;;;;49.22;38.38;;;18.60;99.90;;;;;;5051653;28;20025;-74
2021/07/25 00:20:54;;;;;;;51.50;38.75;;;18.50;99.90;;;;;;5051022;28;20393;-74
2021/07/25 00:23:22;;;;;;;51.90;38.50;;;18.60;99.90;;;;;;5051785;28;20523;-73
2021/07/25 00:25:49;;;;;;;53.10;38.85;;;18.50;99.90;;;;;;5050582;28;20075;-73
2021/07/25 00:28:18;;;;;;;50.92;38.08;;;18.50;99.90;;;;;;5051872;28;20078;-73
2021/07/25 00:30:44;;;;;;;54.38;38.78;;;18.60;99.90;;;;;;5050041;28;20025;-72
2021/07/25 00:33:10;;;;;;;57.55;40.65;;;18.50;99.90;;;;;;5051108;28;20021;-73
2021/07/25 00:35:36;;;;;;;55.67;38.25;;;18.50;99.90;;;;;;5038238;28;20021;-73
2021/07/25 00:38:01;;;;;;;55.95;39.35;;;18.50;99.90;;;;;;5055396;28;20112;-73
2021/07/25 00:40:44;;;;;;;52.58;39.70;;;18.50;99.90;;;;;;5054506;28;20021;-73
2021/07/25 00:43:09;;;;;;;54.83;38.28;;;18.50;99.90;;;;;;5049063;28;20025;-73
2021/07/25 00:45:37;;;;;;;54.80;38.10;;;18.50;99.90;;;;;;5028582;28;20021;-73
2021/07/25 00:48:04;;;;;;;59.28;40.65;;;18.60;99.90;;;;;;5032523;28;20063;-73
2021/07/25 00:50:30;;;;;;;56.28;38.30;;;18.50;99.90;;;;;;5029339;28;20093;-73
2021/07/25 00:52:56;;;;;;;57.63;41.65;;;18.50;99.90;;;;;;5025853;28;20488;-73
2021/07/25 00:55:22;;;;;;;57.33;42.03;;;18.50;99.90;;;;;;5034698;28;20128;-72
2021/07/25 00:57:48;;;;;;;61.40;43.03;;;18.50;99.90;;;;;;5034502;28;20073;-72
2021/07/25 01:00:14;;;;;;;53.17;39.35;;;18.50;99.90;;;;;;5035383;28;20021;-74
2021/07/25 01:03:01;;;;;;;52.30;38.80;;;18.50;99.90;;;;;;5034203;28;20029;-73
2021/07/25 01:05:38;;;;;;;60.45;40.78;;;18.50;99.90;;;;;;5023608;28;20068;-74
2021/07/25 01:08:16;;;;;;;64.35;42.47;;;18.40;99.90;;;;;;5034272;28;20025;-73
2021/07/25 01:10:44;;;;;;;62.22;42.97;;;18.40;99.90;;;;;;5035148;28;20032;-73
2021/07/25 01:13:21;;;;;;;59.53;43.17;;;18.40;99.90;;;;;;5034817;28;20374;-73
2021/07/25 01:15:47;;;;;;;62.97;43.28;;;18.40;99.90;;;;;;5033803;28;20037;-73
2021/07/25 01:18:13;;;;;;;64.55;45.50;;;18.40;99.90;;;;;;5034324;28;20037;-73
2021/07/25 01:20:38;;;;;;;64.80;41.97;;;18.40;99.90;;;;;;5034629;28;20018;-72
2021/07/25 01:23:04;;;;;;;61.58;42.83;;;18.40;99.90;;;;;;5033466;28;20477;-73
2021/07/25 01:25:29;;;;;;;59.22;43.63;;;18.40;99.90;;;;;;5034296;28;20028;-74
2021/07/25 01:28:10;;;;;;;62.58;42.53;;;18.40;99.90;;;;;;5034298;28;20018;-72
2021/07/25 01:30:40;;;;;;;58.35;43.50;;;18.30;99.90;;;;;;5033558;28;20372;-74
2021/07/25 01:33:21;;;;;;;60.20;42.47;;;18.40;99.90;;;;;;5034318;28;20044;-73
2021/07/25 01:35:48;;;;;;;62.00;41.60;;;18.40;99.90;;;;;;5033922;28;20045;-74
2021/07/25 01:38:14;;;;;;;62.40;43.75;;;18.40;99.90;;;;;;5033521;28;20124;-74
2021/07/25 01:40:40;;;;;;;59.40;42.88;;;18.40;99.90;;;;;;5034157;28;20105;-73
2021/07/25 01:43:09;;;;;;;57.58;42.80;;;18.30;99.90;;;;;;5033097;28;20079;-73
2021/07/25 01:45:35;;;;;;;65.47;42.70;;;18.30;99.90;;;;;;5034287;28;20018;-74
2021/07/25 01:48:01;;;;;;;63.22;44.88;;;18.30;99.90;;;;;;5033443;28;20032;-73
2021/07/25 01:50:27;;;;;;;61.03;43.85;;;18.30;99.90;;;;;;5033698;28;20030;-73
2021/07/25 01:52:52;;;;;;;63.60;43.00;;;18.30;99.90;;;;;;5033963;28;20527;-73
2021/07/25 01:55:18;;;;;;;54.90;39.67;;;18.30;99.90;;;;;;5034058;28;20089;-73
2021/07/25 01:57:44;;;;;;;60.55;41.05;;;18.30;99.90;;;;;;5032769;28;20469;-73
2021/07/25 02:00:10;;;;;;;57.45;40.83;;;18.20;99.90;;;;;;5034169;28;20056;-74
2021/07/25 02:02:36;;;;;;;57.50;41.25;;;18.20;99.90;;;;;;5033530;28;20465;-75
2021/07/25 02:05:03;;;;;;;60.53;42.10;;;18.20;99.90;;;;;;5032967;28;20021;-72
2021/07/25 02:07:28;;;;;;;55.53;38.40;;;18.20;99.90;;;;;;5033657;28;20022;-73
2021/07/25 02:09:54;;;;;;;58.65;38.47;;;18.10;99.90;;;;;;5033211;28;20075;-73
2021/07/25 02:12:21;;;;;;;49.83;37.17;;;18.20;99.90;;;;;;5032878;28;20047;-73
2021/07/25 02:14:47;;;;;;;52.40;36.72;;;18.10;99.90;;;;;;5030011;28;20033;-72
2021/07/25 02:17:12;;;;;;;54.35;36.38;;;18.20;99.90;;;;;;5023479;28;20385;-72
2021/07/25 02:19:38;;;;;;;56.22;37.25;;;18.20;99.90;;;;;;5032800;28;20029;-73
2021/07/25 02:22:04;;;;;;;47.15;35.22;;;18.20;99.90;;;;;;5033408;28;20121;-73
2021/07/25 02:24:30;;;;;;;48.55;35.30;;;18.20;99.90;;;;;;5033466;28;20053;-73
2021/07/25 02:26:56;;;;;;;52.75;36.72;;;18.20;99.90;;;;;;5032365;28;20566;-74
2021/07/25 02:29:21;;;;;;;48.10;34.20;;;18.10;99.90;;;;;;5033392;28;20430;-73
2021/07/25 02:31:47;;;;;;;49.15;36.00;;;18.10;99.90;;;;;;5032722;28;20025;-74
2021/07/25 02:34:13;;;;;;;50.58;34.17;;;18.00;99.90;;;;;;5032583;28;20028;-74
2021/07/25 02:36:40;;;;;;;49.53;34.50;;;18.00;99.90;;;;;;5032925;28;20068;-73
2021/07/25 02:39:06;;;;;;;49.10;34.63;;;18.00;99.90;;;;;;5032954;28;20447;-73
2021/07/25 02:41:32;;;;;;;48.85;34.50;;;18.00;99.90;;;;;;5032334;28;20104;-73
2021/07/25 02:43:57;;;;;;;44.78;34.13;;;18.00;99.90;;;;;;5032681;28;20065;-73
2021/07/25 02:46:23;;;;;;;44.13;34.38;;;18.00;99.90;;;;;;5032622;28;20107;-74
2021/07/25 02:48:49;;;;;;;48.28;34.38;;;18.00;99.90;;;;;;5032669;28;20056;-73
2021/07/25 02:51:14;;;;;;;46.33;32.42;;;18.00;99.90;;;;;;5032985;28;20017;-72
2021/07/25 02:53:40;;;;;;;44.67;34.00;;;18.00;99.90;;;;;;5031970;28;20052;-73
2021/07/25 02:56:05;;;;;;;45.08;31.45;;;17.90;99.90;;;;;;5032269;28;20017;-73
2021/07/25 02:58:31;;;;;;;44.53;32.17;;;17.90;99.90;;;;;;5031989;28;20033;-73
2021/07/25 03:00:57;;;;;;;46.17;33.28;;;17.90;99.90;;;;;;5032035;28;20108;-72
2021/07/25 03:03:22;;;;;;;49.83;35.67;;;17.90;99.90;;;;;;5032803;28;20017;-73
2021/07/25 03:05:48;;;;;;;49.05;35.58;;;17.80;99.90;;;;;;5032705;28;20112;-73
2021/07/25 03:08:13;;;;;;;51.55;35.95;;;17.80;99.90;;;;;;5031810;28;20017;-73
2021/07/25 03:10:40;;;;;;;48.70;35.15;;;17.80;99.90;;;;;;5033021;28;20021;-74
2021/07/25 03:13:05;;;;;;;52.83;37.28;;;17.70;99.90;;;;;;5032277;28;20025;-74
2021/07/25 03:15:31;;;;;;;49.90;36.63;;;17.70;99.90;;;;;;5031810;28;20024;-72
2021/07/25 03:17:56;;;;;;;53.67;36.95;;;17.60;99.90;;;;;;5032142;28;20116;-73
2021/07/25 03:20:22;;;;;;;57.53;39.08;;;17.60;99.90;;;;;;5032341;28;20142;-72
2021/07/25 03:22:47;;;;;;;56.22;36.83;;;17.60;99.90;;;;;;5031431;28;20021;-72
2021/07/25 03:25:13;;;;;;;57.92;38.65;;;17.60;99.90;;;;;;5032074;28;20017;-73
2021/07/25 03:27:39;;;;;;;57.58;39.33;;;17.60;99.90;;;;;;5032423;28;20033;-73
2021/07/25 03:30:05;;;;;;;50.92;35.15;;;17.50;99.90;;;;;;5031064;28;20491;-73
2021/07/25 03:32:31;;;;;;;50.75;34.13;;;17.50;99.90;;;;;;5032247;28;20381;-73
2021/07/25 03:34:58;;;;;;;46.20;34.08;;;17.50;99.90;;;;;;5031722;28;20031;-73
2021/07/25 03:37:23;;;;;;;49.50;33.83;;;17.40;99.90;;;;;;5031193;28;20068;-74
2021/07/25 03:39:53;;;;;;;43.20;30.48;;;17.30;99.90;;;;;;5031964;28;20025;-73
2021/07/25 03:42:18;;;;;;;43.97;32.03;;;17.40;99.90;;;;;;5032291;28;20025;-73
2021/07/25 03:44:44;;;;;;;40.58;28.50;;;17.30;99.90;;;;;;5031014;28;20431;-74
2021/07/25 03:47:11;;;;;;;35.33;26.98;;;17.30;99.90;;;;;;5031907;28;20022;-74
2021/07/25 03:49:39;;;;;;;41.40;27.38;;;17.30;99.90;;;;;;5031265;28;20033;-73
2021/07/25 03:52:05;;;;;;;30.85;24.52;;;17.30;99.90;;;;;;5031608;28;20036;-73
2021/07/25 03:54:30;;;;;;;38.05;24.92;;;17.20;99.90;;;;;;5031536;28;20034;-73
2021/07/25 03:56:56;;;;;;;29.38;22.55;;;17.20;99.90;;;;;;5030565;28;20332;-73
2021/07/25 03:59:21;;;;;;;27.92;21.77;;;17.20;99.90;;;;;;5031562;28;20041;-73
2021/07/25 04:01:47;;;;;;;31.60;21.25;;;17.10;99.90;;;;;;5031592;28;20022;-73
2021/07/25 04:04:12;;;;;;;31.42;21.83;;;17.10;99.90;;;;;;5031272;28;20017;-73
2021/07/25 04:06:38;;;;;;;30.20;21.00;;;17.10;99.90;;;;;;5031650;28;20026;-73
2021/07/25 04:09:03;;;;;;;25.90;19.73;;;17.10;99.90;;;;;;5031620;28;20393;-74
2021/07/25 04:11:29;;;;;;;35.92;19.27;;;17.10;99.90;;;;;;5035354;28;20396;-72
2021/07/25 04:13:54;;;;;;;32.67;20.33;;;17.20;99.90;;;;;;5035882;28;20026;-73
2021/07/25 04:16:20;;;;;;;22.33;18.98;;;17.20;99.90;;;;;;5036202;28;20048;-73
2021/07/25 04:18:45;;;;;;;23.95;18.33;;;17.20;99.90;;;;;;5035354;28;20044;-74
2021/07/25 04:21:11;;;;;;;26.45;18.00;;;17.20;99.90;;;;;;5036186;28;20029;-75
2021/07/25 04:23:50;;;;;;;20.58;16.85;;;17.30;99.90;;;;;;5030227;28;20037;-73
2021/07/25 04:26:15;;;;;;;21.27;17.48;;;17.30;99.90;;;;;;5028987;28;20033;-72
2021/07/25 04:28:42;;;;;;;21.52;17.55;;;17.40;99.90;;;;;;5035685;28;20022;-73
2021/07/25 04:31:08;;;;;;;21.73;16.85;;;17.40;99.90;;;;;;5035098;28;20124;-73
2021/07/25 04:33:35;;;;;;;21.88;16.90;;;17.50;99.90;;;;;;5034684;28;20152;-74
2021/07/25 04:36:01;;;;;;;20.73;15.57;;;17.40;99.90;;;;;;5035140;28;20053;-73
2021/07/25 04:38:27;;;;;;;17.30;15.45;;;17.50;99.90;;;;;;5035285;28;20405;-73
2021/07/25 04:41:00;;;;;;;16.52;14.75;;;17.60;99.90;;;;;;5034537;28;20017;-73
2021/07/25 04:43:29;;;;;;;25.65;17.02;;;17.60;99.90;;;;;;5035212;28;20036;-73
2021/07/25 04:46:04;;;;;;;18.65;14.43;;;17.60;99.90;;;;;;5034276;28;20100;-73
2021/07/25 04:48:40;;;;;;;16.30;14.32;;;17.70;99.90;;;;;;5035089;28;20045;-73
2021/07/25 04:51:06;;;;;;;17.70;13.35;;;17.70;99.90;;;;;;5034965;28;20462;-72
2021/07/25 04:53:40;;;;;;;15.55;13.90;;;17.70;99.90;;;;;;5034459;28;20033;-72
2021/07/25 04:56:12;;;;;;;15.13;13.13;;;17.70;99.90;;;;;;5034747;28;20092;-73
2021/07/25 04:58:51;;;;;;;15.02;12.45;;;17.70;99.90;;;;;;5034875;28;20034;-72
2021/07/25 05:01:23;;;;;;;15.07;12.60;;;17.70;99.90;;;;;;5034014;28;20504;-72
2021/07/25 05:03:49;;;;;;;13.85;12.05;;;17.70;99.90;;;;;;5034654;28;20026;-72
2021/07/25 05:06:15;;;;;;;13.43;11.88;;;17.70;99.90;;;;;;5034757;28;20068;-72
2021/07/25 05:08:50;;;;;;;13.75;11.95;;;17.80;99.90;;;;;;5034167;28;20084;-73
2021/07/25 05:11:20;;;;;;;13.93;11.15;;;17.80;99.90;;;;;;5034649;28;20025;-73
2021/07/25 05:13:47;;;;;;;13.27;11.85;;;17.80;99.90;;;;;;5034622;28;20542;-73
2021/07/25 05:16:26;;;;;;;15.32;13.20;;;17.80;99.90;;;;;;5033979;28;20075;-72
2021/07/25 05:19:17;;;;;;;19.92;11.73;;;17.80;99.90;;;;;;5034258;28;20116;-73
2021/07/25 05:21:51;;;;;;;15.45;11.52;;;17.80;99.90;;;;;;5017184;28;20551;-72
2021/07/25 05:24:21;;;;;;;15.65;10.98;;;17.80;99.90;;;;;;5034600;28;20045;-73
2021/07/25 05:26:48;;;;;;;12.18;10.85;;;17.80;99.90;;;;;;5034351;28;20584;-73
2021/07/25 05:29:17;;;;;;;13.43;12.00;;;17.90;99.90;;;;;;5033935;28;20419;-73
2021/07/25 05:31:43;;;;;;;14.35;11.57;;;17.90;99.90;;;;;;5034229;28;20508;-72
2021/07/25 05:34:09;;;;;;;12.75;10.57;;;17.90;99.90;;;;;;5034352;28;20029;-73
2021/07/25 05:36:34;;;;;;;12.13;10.90;;;18.00;99.90;;;;;;5033380;28;20473;-73
2021/07/25 05:39:00;;;;;;;12.65;11.30;;;18.00;99.90;;;;;;5034010;28;20470;-73
2021/07/25 05:41:26;;;;;;;13.55;12.13;;;18.00;99.90;;;;;;5034136;28;20549;-73
2021/07/25 05:43:52;;;;;;;11.80;10.70;;;18.00;99.90;;;;;;5033200;28;20029;-74
2021/07/25 05:46:18;;;;;;;14.07;9.90;;;18.00;99.90;;;;;;5032668;28;20512;-73
2021/07/25 05:48:43;;;;;;;14.82;11.10;;;18.00;99.90;;;;;;5033785;28;20026;-73
2021/07/25 05:51:09;;;;;;;11.95;10.75;;;18.20;99.90;;;;;;5033367;28;20022;-73
2021/07/25 05:53:34;;;;;;;12.05;10.80;;;18.20;99.90;;;;;;5034078;28;20025;-73
2021/07/25 05:56:00;;;;;;;11.23;10.20;;;18.30;99.90;;;;;;5033812;28;20071;-73
2021/07/25 05:58:25;;;;;;;13.90;11.02;;;18.40;99.90;;;;;;5033230;28;20103;-73
2021/07/25 06:00:52;;;;;;;11.40;10.18;;;18.50;99.90;;;;;;5033478;28;20180;-73
2021/07/25 06:03:17;;;;;;;10.38;9.32;;;18.60;99.90;;;;;;5033088;28;20120;-74
2021/07/25 06:05:43;;;;;;;11.48;9.60;;;18.70;99.90;;;;;;5033777;28;20513;-72
2021/07/25 06:08:09;;;;;;;11.10;9.93;;;18.80;99.90;;;;;;5033721;28;20112;-73
2021/07/25 06:10:40;;;;;;;11.63;9.93;;;18.90;99.90;;;;;;5033308;28;20021;-73
2021/07/25 06:13:06;;;;;;;11.93;10.55;;;18.90;99.90;;;;;;5033289;28;20022;-72
2021/07/25 06:15:33;;;;;;;10.98;9.95;;;19.00;99.90;;;;;;5033598;28;20033;-72
2021/07/25 06:18:02;;;;;;;11.20;10.18;;;19.00;99.90;;;;;;5032130;28;20151;-73
2021/07/25 06:20:29;;;;;;;10.57;9.60;;;19.10;99.90;;;;;;5033984;28;20100;-73
2021/07/25 06:22:55;;;;;;;12.07;10.30;;;19.20;99.90;;;;;;5033211;28;20111;-74
2021/07/25 06:25:26;;;;;;;10.70;9.70;;;19.30;99.90;;;;;;5032901;28;20025;-76
2021/07/25 06:27:55;;;;;;;11.07;9.75;;;19.30;99.90;;;;;;5033354;28;20083;-74
2021/07/25 06:30:22;;;;;;;12.80;10.30;;;19.50;99.90;;;;;;5033133;28;20022;-72
2021/07/25 06:33:04;;;;;;;11.07;10.05;;;19.60;99.90;;;;;;5032458;28;20068;-73
2021/07/25 06:35:35;;;;;;;9.95;8.93;;;19.60;99.90;;;;;;5019359;28;20358;-74
2021/07/25 06:38:21;;;;;;;12.90;10.02;;;19.70;99.90;;;;;;5033006;28;20108;-73
2021/07/25 06:40:52;;;;;;;13.50;9.13;;;19.70;99.90;;;;;;5032628;28;20096;-73
2021/07/25 06:43:19;;;;;;;10.57;9.52;;;19.80;99.90;;;;;;5033790;28;20022;-73
2021/07/25 06:45:44;;;;;;;14.57;10.30;;;19.80;99.90;;;;;;5033635;28;20025;-73
2021/07/25 06:48:21;;;;;;;11.82;9.98;;;19.80;99.90;;;;;;5033430;28;20366;-73
2021/07/25 06:50:49;;;;;;;12.68;9.98;;;19.70;99.90;;;;;;5032479;28;20039;-73
2021/07/25 06:53:15;;;;;;;12.55;11.25;;;19.70;99.90;;;;;;5032097;28;20025;-74
2021/07/25 06:55:41;;;;;;;12.27;10.95;;;19.70;99.90;;;;;;5032725;28;20488;-73
2021/07/25 06:58:06;;;;;;;12.93;10.98;;;19.50;99.90;;;;;;5033075;28;20034;-73
2021/07/25 07:00:34;;;;;;;15.77;11.23;;;19.50;99.90;;;;;;5032197;28;20021;-73
2021/07/25 07:02:59;;;;;;;13.05;11.13;;;19.50;99.90;;;;;;5032236;28;20469;-73
2021/07/25 07:05:26;;;;;;;16.13;13.50;;;19.50;99.90;;;;;;5032712;28;20075;-74
2021/07/25 07:07:54;;;;;;;18.73;12.38;;;19.50;99.90;;;;;;5031673;28;20040;-74
2021/07/25 07:10:22;;;;;;;17.80;12.80;;;19.50;99.90;;;;;;5032741;28;20022;-73
2021/07/25 07:12:49;;;;;;;16.38;13.25;;;19.60;99.90;;;;;;5032475;28;20061;-73
2021/07/25 07:15:15;;;;;;;16.45;13.40;;;19.60;99.90;;;;;;5032216;28;20076;-73
2021/07/25 07:17:41;;;;;;;14.13;12.02;;;19.70;99.90;;;;;;5032684;28;20044;-73
2021/07/25 07:20:09;;;;;;;14.02;12.68;;;19.70;99.90;;;;;;5032145;28;20354;-74
2021/07/25 07:22:36;;;;;;;16.05;12.15;;;19.70;99.90;;;;;;5031620;28;20049;-73
2021/07/25 07:25:03;;;;;;;14.65;12.38;;;20.00;99.90;;;;;;5032058;28;20541;-73
2021/07/25 07:27:29;;;;;;;15.73;13.23;;;19.90;99.90;;;;;;5032457;28;20036;-72
2021/07/25 07:29:55;;;;;;;13.88;12.35;;;20.00;99.90;;;;;;5031433;28;20116;-74
2021/07/25 07:32:21;;;;;;;15.02;12.68;;;19.90;99.90;;;;;;5032535;28;20030;-73
2021/07/25 07:34:46;;;;;;;16.70;11.77;;;20.10;99.90;;;;;;5031362;28;20055;-73
2021/07/25 07:37:12;;;;;;;15.77;12.27;;;20.10;99.90;;;;;;5032374;28;20516;-73
2021/07/25 07:39:39;;;;;;;17.65;13.32;;;20.20;99.90;;;;;;5032472;28;20025;-73
2021/07/25 07:42:06;;;;;;;15.88;12.88;;;20.20;99.90;;;;;;5031427;28;20034;-74
2021/07/25 07:44:32;;;;;;;15.50;13.90;;;20.30;99.90;;;;;;5031940;28;20127;-73
2021/07/25 07:46:58;;;;;;;24.15;15.23;;;21.10;99.90;;;;;;5032007;28;20036;-74
2021/07/25 07:49:24;;;;;;;20.20;14.05;;;20.40;99.90;;;;;;5031876;28;20018;-73
2021/07/25 07:51:50;;;;;;;16.08;14.30;;;20.50;99.90;;;;;;5031711;28;20040;-72
2021/07/25 07:54:15;;;;;;;14.07;12.63;;;20.50;99.90;;;;;;5032326;28;20377;-72
2021/07/25 07:56:41;;;;;;;18.25;13.63;;;20.50;99.90;;;;;;5031735;28;20385;-73
2021/07/25 07:59:06;;;;;;;15.27;13.20;;;20.50;99.90;;;;;;5032092;28;20045;-73
2021/07/25 08:01:33;;;;;;;17.27;13.57;;;20.50;99.90;;;;;;5032654;28;20022;-73
2021/07/25 08:03:58;;;;;;;22.15;14.77;;;20.60;99.90;;;;;;5031293;28;20030;-73
2021/07/25 08:06:24;;;;;;;26.83;15.77;;;20.70;99.90;;;;;;5031988;28;20028;-74
2021/07/25 08:08:49;;;;;;;22.13;15.85;;;20.80;99.90;;;;;;5032057;28;20579;-74
2021/07/25 08:11:15;;;;;;;17.02;14.27;;;20.90;99.90;;;;;;5031511;28;20018;-74
2021/07/25 08:13:43;;;;;;;25.77;15.57;;;20.90;99.90;;;;;;5023899;28;20061;-74
2021/07/25 08:16:11;;;;;;;21.42;15.32;;;21.00;99.90;;;;;;5026608;28;20105;-73
2021/07/25 08:18:37;;;;;;;19.65;15.52;;;21.00;99.90;;;;;;5031249;28;20037;-73
2021/07/25 08:21:04;;;;;;;21.42;16.30;;;21.10;99.90;;;;;;5031850;28;20025;-73
2021/07/25 08:23:30;;;;;;;26.70;16.85;;;21.30;99.90;;;;;;5032473;28;20076;-73
2021/07/25 08:25:55;;;;;;;20.02;14.40;;;21.30;99.90;;;;;;5031389;28;20033;-73
2021/07/25 08:28:21;;;;;;;23.30;14.50;;;21.40;99.90;;;;;;5031795;28;20033;-73
2021/07/25 08:30:46;;;;;;;25.45;16.27;;;21.40;99.90;;;;;;5031656;28;20108;-74
2021/07/25 08:33:12;;;;;;;27.90;17.75;;;21.50;99.90;;;;;;5031018;28;20038;-73
2021/07/25 08:35:38;;;;;;;23.25;17.08;;;21.60;99.90;;;;;;5031612;28;20031;-74
2021/07/25 08:38:04;;;;;;;20.25;16.30;;;21.70;99.90;;;;;;5030956;28;20090;-74
2021/07/25 08:40:31;;;;;;;19.88;14.70;;;21.80;99.90;;;;;;5031668;28;20496;-74
2021/07/25 08:43:03;;;;;;;21.38;14.88;;;21.80;99.90;;;;;;5031498;28;20041;-74
2021/07/25 08:45:33;;;;;;;24.05;15.43;;;21.90;99.90;;;;;;5031094;28;20037;-74
2021/07/25 08:48:12;;;;;;;18.98;15.40;;;21.90;99.90;;;;;;5031473;28;20036;-73
2021/07/25 08:50:44;;;;;;;18.00;15.27;;;22.00;99.90;;;;;;5031783;28;20034;-73
2021/07/25 08:53:16;;;;;;;21.63;14.70;;;22.00;99.90;;;;;;5031100;28;20025;-73
2021/07/25 08:55:42;;;;;;;20.80;15.75;;;22.10;99.90;;;;;;5031126;28;20061;-73
2021/07/25 08:58:11;;;;;;;22.83;15.80;;;22.20;99.90;;;;;;5034425;28;20119;-72
2021/07/25 09:00:37;;;;;;;18.67;14.68;;;22.40;99.90;;;;;;5035020;28;20508;-74
2021/07/25 09:03:08;;;;;;;18.95;15.30;;;22.60;99.90;;;;;;5034981;28;20033;-74
2021/07/25 09:05:36;;;;;;;21.98;15.40;;;22.70;99.90;;;;;;5024222;28;20034;-73
2021/07/25 09:08:03;;;;;;;17.42;14.25;;;22.80;99.90;;;;;;5018565;28;20028;-73
2021/07/25 09:10:29;;;;;;;20.23;14.35;;;23.00;99.90;;;;;;5035781;28;20018;-74
2021/07/25 09:12:55;;;;;;;20.95;14.43;;;23.10;99.90;;;;;;5035356;28;20029;-74
2021/07/25 09:15:39;;;;;;;22.70;14.73;;;23.30;99.90;;;;;;5035355;28;20028;-73
2021/07/25 09:18:05;;;;;;;21.70;14.93;;;23.40;99.90;;;;;;5034877;28;20550;-73
2021/07/25 09:20:40;;;;;;;18.45;12.27;;;23.40;99.90;;;;;;5034537;28;20022;-74
2021/07/25 09:23:14;;;;;;;15.32;12.98;;;23.40;99.90;;;;;;5035115;28;20055;-73
2021/07/25 09:25:58;;;;;;;19.95;13.43;;;23.40;99.90;;;;;;5035200;28;20366;-73
2021/07/25 09:28:25;;;;;;;14.55;12.90;;;23.40;99.90;;;;;;5034174;28;20033;-74
2021/07/25 09:30:52;;;;;;;18.52;11.77;;;23.40;99.90;;;;;;5035257;28;20029;-73
2021/07/25 09:33:25;;;;;;;16.83;13.60;;;23.40;99.90;;;;;;5035400;28;20022;-74
2021/07/25 09:35:51;;;;;;;15.52;12.48;;;23.40;99.90;;;;;;5033893;28;20049;-74
2021/07/25 09:38:17;;;;;;;16.33;12.85;;;23.40;99.90;;;;;;5034824;28;20373;-74
2021/07/25 09:40:44;;;;;;;14.02;10.52;;;23.50;99.90;;;;;;5034875;28;20089;-74
2021/07/25 09:43:25;;;;;;;14.40;10.00;;;23.50;99.90;;;;;;5034454;28;20546;-73
2021/07/25 09:45:53;;;;;;;13.93;11.57;;;23.60;99.90;;;;;;5021838;28;20053;-74
2021/07/25 09:48:20;;;;;;;14.23;9.57;;;23.60;99.90;;;;;;5020766;28;20071;-74
2021/07/25 09:50:46;;;;;;;10.70;9.63;;;23.80;99.90;;;;;;5034426;28;20021;-74
2021/07/25 09:53:13;;;;;;;18.10;10.10;;;23.90;99.90;;;;;;5034671;28;20132;-73
2021/07/25 09:55:39;;;;;;;14.18;9.45;;;24.00;99.90;;;;;;5034116;28;20126;-74
2021/07/25 09:58:05;;;;;;;9.52;8.55;;;24.20;99.90;;;;;;5014359;28;20038;-74
2021/07/25 10:00:46;;;;;;;13.32;9.10;;;24.30;99.90;;;;;;5026884;28;20022;-74
2021/07/25 10:03:17;;;;;;;;;;;24.50;99.90;;;;;;5034671;28;20409;-74
2021/07/25 10:06:03;;;;;;;10.82;8.73;;;24.50;99.90;;;;;;5021918;28;19906;-74
2021/07/25 10:08:29;;;;;;;9.88;8.95;;;24.50;99.90;;;;;;5021665;28;20039;-74
2021/07/25 10:10:55;;;;;;;8.45;7.63;;;24.40;99.90;;;;;;5033753;28;20021;-75
2021/07/25 10:13:32;;;;;;;11.13;6.65;;;24.40;99.90;;;;;;5034121;28;20026;-75
2021/07/25 10:15:59;;;;;;;9.77;6.68;;;24.40;99.90;;;;;;5035362;28;20033;-74
2021/07/25 10:18:28;;;;;;;7.53;6.82;;;24.40;99.90;;;;;;5034037;28;20037;-74
2021/07/25 10:21:00;;;;;;;7.95;7.15;;;24.60;99.90;;;;;;5034405;28;20416;-74
2021/07/25 10:23:32;;;;;;;8.98;7.45;;;24.60;99.90;;;;;;5015949;28;20037;-74
2021/07/25 10:26:04;;;;;;;7.07;6.38;;;24.80;99.90;;;;;;5025419;28;20077;-74
2021/07/25 10:28:34;;;;;;;8.23;7.30;;;24.80;99.90;;;;;;5034590;28;20403;-76
2021/07/25 10:31:00;;;;;;;8.20;7.10;;;24.90;99.90;;;;;;5033215;28;20465;-74
2021/07/25 10:33:29;;;;;;;7.78;6.55;;;25.00;99.90;;;;;;5034077;28;20113;-72
2021/07/25 10:35:56;;;;;;;9.23;8.30;;;25.00;99.90;;;;;;5033652;28;20041;-73
2021/07/25 10:38:22;;;;;;;11.50;9.27;;;25.00;99.90;;;;;;5032821;28;20078;-73
2021/07/25 10:40:49;;;;;;;10.13;8.95;;;25.20;99.90;;;;;;5032033;28;20498;-73
2021/07/25 10:43:16;;;;;;;10.70;9.02;;;25.00;99.90;;;;;;5033691;28;20036;-74
2021/07/25 10:45:43;;;;;;;11.95;9.23;;;24.90;99.90;;;;;;5019191;28;20021;-74
2021/07/25 10:48:14;;;;;;;10.25;9.18;;;24.80;99.90;;;;;;5033588;28;20128;-74
2021/07/25 10:50:40;;;;;;;10.07;7.50;;;24.80;99.90;;;;;;5033342;28;20020;-74
2021/07/25 10:53:06;;;;;;;10.50;7.47;;;24.80;99.90;;;;;;5028362;28;20081;-74
2021/07/25 10:55:52;;;;;;;8.02;7.03;;;24.90;99.90;;;;;;5033323;28;20021;-73
2021/07/25 10:58:20;;;;;;;9.75;7.30;;;24.80;99.90;;;;;;5033633;28;20033;-75
2021/07/25 11:00:57;;;;;;;11.35;8.43;;;24.80;99.90;;;;;;5032070;28;20445;-72
2021/07/25 11:03:25;;;;;;;8.32;7.45;;;24.70;99.90;;;;;;5025497;28;20026;-73
2021/07/25 11:06:00;;;;;;;8.00;6.75;;;24.80;99.90;;;;;;5026038;28;20021;-74
2021/07/25 11:08:36;;;;;;;8.90;7.05;;;24.90;99.90;;;;;;5020710;28;20029;-74
2021/07/25 11:11:25;;;;;;;11.82;8.20;;;24.90;99.90;;;;;;5032258;28;20022;-73
2021/07/25 11:13:53;;;;;;;8.60;6.65;;;25.00;99.90;;;;;;5030575;28;20116;-74
2021/07/25 11:16:29;;;;;;;8.10;6.25;;;25.00;99.90;;;;;;5032692;28;20053;-74
2021/07/25 11:18:55;;;;;;;5.93;5.32;;;25.20;99.90;;;;;;5032073;28;20072;-73
2021/07/25 11:21:34;;;;;;;6.82;5.75;;;25.40;99.90;;;;;;5031973;28;20037;-74
2021/07/25 11:24:22;;;;;;;5.38;4.85;;;25.60;99.90;;;;;;5032560;28;20025;-73
2021/07/25 11:26:52;;;;;;;8.60;5.75;;;25.80;99.90;;;;;;5031606;28;20052;-73
2021/07/25 11:29:33;;;;;;;8.98;7.90;;;25.80;99.90;;;;;;5032723;28;20473;-73
2021/07/25 11:32:00;;;;;;;11.38;7.57;;;25.60;99.90;;;;;;5032519;28;20026;-74
2021/07/25 11:34:31;;;;;;;9.18;7.00;;;25.50;99.90;;;;;;5032222;28;20022;-73
2021/07/25 11:37:02;;;;;;;9.85;6.72;;;25.40;99.90;;;;;;5032092;28;20497;-75
2021/07/25 11:39:30;;;;;;;10.55;6.60;;;25.30;99.90;;;;;;5032992;28;20053;-73
2021/07/25 11:41:56;;;;;;;5.15;4.65;;;25.20;99.90;;;;;;5032107;28;20024;-73
2021/07/25 11:44:29;;;;;;;6.75;5.18;;;25.30;99.90;;;;;;5032633;28;20120;-73
2021/07/25 11:47:00;;;;;;;8.45;4.53;;;25.20;99.90;;;;;;5016267;28;20026;-73
2021/07/25 11:49:30;;;;;;;6.35;4.85;;;25.30;99.90;;;;;;5020633;28;20057;-74
2021/07/25 11:51:59;;;;;;;6.13;4.45;;;25.30;99.90;;;;;;5031899;28;20117;-73
2021/07/25 11:54:35;;;;;;;4.95;4.45;;;25.90;99.90;;;;;;5032324;28;20037;-73
2021/07/25 11:57:12;;;;;;;5.65;4.70;;;25.60;99.90;;;;;;5031488;28;20060;-73
2021/07/25 11:59:52;;;;;;;6.28;3.60;;;25.70;99.40;;;;;;5032556;28;20033;-73
2021/07/25 12:02:22;;;;;;;4.50;3.75;;;25.90;99.60;;;;;;5032009;28;20041;-73
2021/07/25 12:04:47;;;;;;;3.83;3.17;;;25.90;99.20;;;;;;5031801;28;20034;-73
2021/07/25 12:07:15;;;;;;;5.80;3.78;;;26.00;99.20;;;;;;5032233;28;20031;-73
2021/07/25 12:10:02;;;;;;;7.03;3.47;;;26.00;99.10;;;;;;5031366;28;20076;-73
2021/07/25 12:12:29;;;;;;;3.55;3.10;;;26.00;98.70;;;;;;5032101;28;20577;-73
2021/07/25 12:15:00;;;;;;;4.28;3.35;;;25.90;98.40;;;;;;5031809;28;20416;-73
2021/07/25 12:17:47;;;;;;;4.47;3.42;;;25.80;98.10;;;;;;5031330;28;20026;-74
2021/07/25 12:20:28;;;;;;;4.18;3.22;;;25.70;98.20;;;;;;5032499;28;20025;-73
2021/07/25 12:22:56;;;;;;;3.95;3.53;;;25.70;98.30;;;;;;5031884;28;20053;-74
2021/07/25 12:25:24;;;;;;;7.90;3.25;;;25.70;98.20;;;;;;5024796;28;20378;-73
2021/07/25 12:28:01;;;;;;;7.22;3.15;;;25.90;98.30;;;;;;5024578;28;20022;-73
2021/07/25 12:30:39;;;;;;;6.10;3.28;;;26.00;97.80;;;;;;5019071;28;20029;-73
2021/07/25 12:33:05;;;;;;;3.72;3.40;;;26.20;97.20;;;;;;5035189;28;20088;-73
2021/07/25 12:35:32;;;;;;;4.25;2.92;;;26.40;96.80;;;;;;5035513;28;20426;-74
2021/07/25 12:38:00;;;;;;;5.93;3.80;;;26.50;96.10;;;;;;5034718;28;20045;-74